sensor_id;sensor_type;location;lat;lon;timestamp;P1;durP1;ratioP1;P2;durP2;ratioP2
72586;SDS011;60621;49.576;11.024;2023-04-25T00:00:58;6.68;;;3.30;;
72586;SDS011;60621;49.576;11.024;2023-04-25T00:02:00;5.85;;;3.10;;
72586;SDS011;60621;49.576;11.024;2023-04-25T00:03:01;6.60;;;2.95;;
72586;SDS011;60621;49.576;11.024;2023-04-25T00:04:03;5.32;;;3.10;;
72586;SDS011;60621;49.576;11.024;2023-04-25T00:05:07;6.03;;;3.00;;
72586;SDS011;60621;49.576;11.024;2023-04-25T00:06:09;5.43;;;2.85;;
72586;SDS011;60621;49.576;11.024;2023-04-25T00:07:11;8.52;;;3.20;;
72586;SDS011;60621;49.576;11.024;2023-04-25T00:08:12;6.25;;;3.28;;
72586;SDS011;60621;49.576;11.024;2023-04-25T00:09:14;6.63;;;3.35;;
72586;SDS011;60621;49.576;11.024;2023-04-25T00:10:16;5.78;;;2.95;;
72586;SDS011;60621;49.576;11.024;2023-04-25T00:11:18;5.85;;;3.08;;
72586;SDS011;60621;49.576;11.024;2023-04-25T00:12:19;6.40;;;3.13;;
72586;SDS011;60621;49.576;11.024;2023-04-25T00:14:24;6.68;;;3.03;;
72586;SDS011;60621;49.576;11.024;2023-04-25T00:15:26;5.90;;;3.05;;
72586;SDS011;60621;49.576;11.024;2023-04-25T00:16:28;5.60;;;2.75;;
72586;SDS011;60621;49.576;11.024;2023-04-25T00:17:31;7.38;;;2.90;;
72586;SDS011;60621;49.576;11.024;2023-04-25T00:18:33;5.68;;;3.08;;
72586;SDS011;60621;49.576;11.024;2023-04-25T00:19:36;6.00;;;2.70;;
72586;SDS011;60621;49.576;11.024;2023-04-25T00:22:42;5.63;;;2.90;;
72586;SDS011;60621;49.576;11.024;2023-04-25T00:23:43;5.03;;;2.53;;
72586;SDS011;60621;49.576;11.024;2023-04-25T00:24:47;5.60;;;2.80;;
72586;SDS011;60621;49.576;11.024;2023-04-25T00:25:48;6.15;;;3.15;;
72586;SDS011;60621;49.576;11.024;2023-04-25T00:27:53;6.18;;;2.70;;
72586;SDS011;60621;49.576;11.024;2023-04-25T00:28:54;5.90;;;2.97;;
72586;SDS011;60621;49.576;11.024;2023-04-25T00:29:56;5.30;;;2.78;;
72586;SDS011;60621;49.576;11.024;2023-04-25T00:30:58;5.85;;;2.70;;
72586;SDS011;60621;49.576;11.024;2023-04-25T00:32:00;5.75;;;2.70;;
72586;SDS011;60621;49.576;11.024;2023-04-25T00:33:02;5.47;;;2.80;;
72586;SDS011;60621;49.576;11.024;2023-04-25T00:34:03;6.00;;;2.75;;
72586;SDS011;60621;49.576;11.024;2023-04-25T00:35:07;5.75;;;3.13;;
72586;SDS011;60621;49.576;11.024;2023-04-25T00:36:09;6.32;;;3.15;;
72586;SDS011;60621;49.576;11.024;2023-04-25T00:37:11;5.68;;;2.83;;
72586;SDS011;60621;49.576;11.024;2023-04-25T00:38:13;5.13;;;2.70;;
72586;SDS011;60621;49.576;11.024;2023-04-25T00:39:14;6.95;;;3.00;;
72586;SDS011;60621;49.576;11.024;2023-04-25T00:40:16;5.85;;;2.72;;
72586;SDS011;60621;49.576;11.024;2023-04-25T00:41:17;4.97;;;2.58;;
72586;SDS011;60621;49.576;11.024;2023-04-25T00:42:20;6.13;;;3.00;;
72586;SDS011;60621;49.576;11.024;2023-04-25T00:43:22;5.60;;;2.97;;
72586;SDS011;60621;49.576;11.024;2023-04-25T00:44:24;5.30;;;2.70;;
72586;SDS011;60621;49.576;11.024;2023-04-25T00:45:28;6.45;;;2.90;;
72586;SDS011;60621;49.576;11.024;2023-04-25T00:46:30;5.65;;;2.83;;
72586;SDS011;60621;49.576;11.024;2023-04-25T00:47:33;5.28;;;2.72;;
72586;SDS011;60621;49.576;11.024;2023-04-25T00:48:35;6.07;;;2.78;;
72586;SDS011;60621;49.576;11.024;2023-04-25T00:49:36;5.70;;;2.75;;
72586;SDS011;60621;49.576;11.024;2023-04-25T00:50:38;5.35;;;2.78;;
72586;SDS011;60621;49.576;11.024;2023-04-25T00:51:39;5.40;;;2.80;;
72586;SDS011;60621;49.576;11.024;2023-04-25T00:52:43;5.75;;;2.92;;
72586;SDS011;60621;49.576;11.024;2023-04-25T00:53:46;5.72;;;2.95;;
72586;SDS011;60621;49.576;11.024;2023-04-25T00:54:50;6.00;;;2.90;;
72586;SDS011;60621;49.576;11.024;2023-04-25T00:55:52;5.00;;;2.70;;
72586;SDS011;60621;49.576;11.024;2023-04-25T00:56:54;5.47;;;2.90;;
72586;SDS011;60621;49.576;11.024;2023-04-25T00:57:56;5.50;;;2.80;;
72586;SDS011;60621;49.576;11.024;2023-04-25T00:58:57;6.07;;;2.90;;
72586;SDS011;60621;49.576;11.024;2023-04-25T00:59:59;5.43;;;2.72;;
72586;SDS011;60621;49.576;11.024;2023-04-25T01:01:01;5.80;;;2.80;;
72586;SDS011;60621;49.576;11.024;2023-04-25T01:02:04;6.03;;;2.75;;
72586;SDS011;60621;49.576;11.024;2023-04-25T01:03:06;6.40;;;2.92;;
72586;SDS011;60621;49.576;11.024;2023-04-25T01:04:08;5.13;;;2.60;;
72586;SDS011;60621;49.576;11.024;2023-04-25T01:05:10;6.05;;;2.55;;
72586;SDS011;60621;49.576;11.024;2023-04-25T01:07:14;5.38;;;2.30;;
72586;SDS011;60621;49.576;11.024;2023-04-25T01:08:16;5.63;;;2.63;;
72586;SDS011;60621;49.576;11.024;2023-04-25T01:09:18;5.40;;;2.80;;
72586;SDS011;60621;49.576;11.024;2023-04-25T01:10:21;5.72;;;2.70;;
72586;SDS011;60621;49.576;11.024;2023-04-25T01:11:22;5.70;;;2.47;;
72586;SDS011;60621;49.576;11.024;2023-04-25T01:12:24;4.72;;;2.40;;
72586;SDS011;60621;49.576;11.024;2023-04-25T01:13:25;5.43;;;3.10;;
72586;SDS011;60621;49.576;11.024;2023-04-25T01:14:27;5.45;;;2.88;;
72586;SDS011;60621;49.576;11.024;2023-04-25T01:15:29;5.57;;;2.75;;
72586;SDS011;60621;49.576;11.024;2023-04-25T01:16:31;5.05;;;2.47;;
72586;SDS011;60621;49.576;11.024;2023-04-25T01:17:33;5.35;;;2.70;;
72586;SDS011;60621;49.576;11.024;2023-04-25T01:18:37;5.72;;;2.53;;
72586;SDS011;60621;49.576;11.024;2023-04-25T01:19:41;6.20;;;3.38;;
72586;SDS011;60621;49.576;11.024;2023-04-25T01:20:43;4.97;;;2.80;;
72586;SDS011;60621;49.576;11.024;2023-04-25T01:21:46;6.07;;;3.17;;
72586;SDS011;60621;49.576;11.024;2023-04-25T01:22:48;5.95;;;3.03;;
72586;SDS011;60621;49.576;11.024;2023-04-25T01:23:51;5.55;;;2.85;;
72586;SDS011;60621;49.576;11.024;2023-04-25T01:24:53;8.25;;;3.20;;
72586;SDS011;60621;49.576;11.024;2023-04-25T01:25:55;5.32;;;2.83;;
72586;SDS011;60621;49.576;11.024;2023-04-25T01:26:57;5.95;;;3.00;;
72586;SDS011;60621;49.576;11.024;2023-04-25T01:28:00;6.03;;;2.72;;
72586;SDS011;60621;49.576;11.024;2023-04-25T01:29:01;5.57;;;3.10;;
72586;SDS011;60621;49.576;11.024;2023-04-25T01:30:05;5.88;;;2.80;;
72586;SDS011;60621;49.576;11.024;2023-04-25T01:31:07;5.05;;;2.65;;
72586;SDS011;60621;49.576;11.024;2023-04-25T01:32:09;4.65;;;2.40;;
72586;SDS011;60621;49.576;11.024;2023-04-25T01:33:11;5.80;;;2.80;;
72586;SDS011;60621;49.576;11.024;2023-04-25T01:34:15;5.40;;;2.65;;
72586;SDS011;60621;49.576;11.024;2023-04-25T01:35:16;6.05;;;2.65;;
72586;SDS011;60621;49.576;11.024;2023-04-25T01:36:18;5.53;;;2.70;;
72586;SDS011;60621;49.576;11.024;2023-04-25T01:37:20;5.53;;;2.58;;
72586;SDS011;60621;49.576;11.024;2023-04-25T01:38:21;6.50;;;2.80;;
72586;SDS011;60621;49.576;11.024;2023-04-25T01:39:23;5.28;;;2.65;;
72586;SDS011;60621;49.576;11.024;2023-04-25T01:40:24;5.10;;;2.58;;
72586;SDS011;60621;49.576;11.024;2023-04-25T01:42:29;5.90;;;2.72;;
72586;SDS011;60621;49.576;11.024;2023-04-25T01:43:30;5.53;;;2.72;;
72586;SDS011;60621;49.576;11.024;2023-04-25T01:44:32;5.22;;;2.85;;
72586;SDS011;60621;49.576;11.024;2023-04-25T01:45:34;6.00;;;3.00;;
72586;SDS011;60621;49.576;11.024;2023-04-25T01:46:37;5.78;;;3.17;;
72586;SDS011;60621;49.576;11.024;2023-04-25T01:47:39;5.18;;;2.80;;
72586;SDS011;60621;49.576;11.024;2023-04-25T01:48:41;5.10;;;2.60;;
72586;SDS011;60621;49.576;11.024;2023-04-25T01:49:43;5.60;;;2.63;;
72586;SDS011;60621;49.576;11.024;2023-04-25T01:50:45;5.20;;;2.72;;
72586;SDS011;60621;49.576;11.024;2023-04-25T01:51:47;5.35;;;2.83;;
72586;SDS011;60621;49.576;11.024;2023-04-25T01:52:49;5.60;;;2.70;;
72586;SDS011;60621;49.576;11.024;2023-04-25T01:53:50;5.60;;;2.65;;
72586;SDS011;60621;49.576;11.024;2023-04-25T01:54:52;5.47;;;3.13;;
72586;SDS011;60621;49.576;11.024;2023-04-25T01:55:54;5.13;;;2.50;;
72586;SDS011;60621;49.576;11.024;2023-04-25T01:56:57;5.97;;;2.72;;
72586;SDS011;60621;49.576;11.024;2023-04-25T01:57:58;6.03;;;2.78;;
72586;SDS011;60621;49.576;11.024;2023-04-25T01:59:01;8.02;;;3.20;;
72586;SDS011;60621;49.576;11.024;2023-04-25T02:00:05;5.85;;;2.80;;
72586;SDS011;60621;49.576;11.024;2023-04-25T02:01:08;5.90;;;2.60;;
72586;SDS011;60621;49.576;11.024;2023-04-25T02:02:09;5.90;;;3.13;;
72586;SDS011;60621;49.576;11.024;2023-04-25T02:03:11;6.55;;;3.10;;
72586;SDS011;60621;49.576;11.024;2023-04-25T02:04:13;5.93;;;3.03;;
72586;SDS011;60621;49.576;11.024;2023-04-25T02:05:14;5.75;;;2.97;;
72586;SDS011;60621;49.576;11.024;2023-04-25T02:06:16;5.00;;;2.60;;
72586;SDS011;60621;49.576;11.024;2023-04-25T02:07:18;6.13;;;2.88;;
72586;SDS011;60621;49.576;11.024;2023-04-25T02:08:19;5.43;;;2.60;;
72586;SDS011;60621;49.576;11.024;2023-04-25T02:09:21;6.55;;;2.85;;
72586;SDS011;60621;49.576;11.024;2023-04-25T02:10:23;6.20;;;2.90;;
72586;SDS011;60621;49.576;11.024;2023-04-25T02:11:24;5.88;;;2.65;;
72586;SDS011;60621;49.576;11.024;2023-04-25T02:12:27;5.82;;;2.83;;
72586;SDS011;60621;49.576;11.024;2023-04-25T02:14:30;5.25;;;2.75;;
72586;SDS011;60621;49.576;11.024;2023-04-25T02:15:32;5.93;;;2.70;;
72586;SDS011;60621;49.576;11.024;2023-04-25T02:16:34;6.03;;;2.70;;
72586;SDS011;60621;49.576;11.024;2023-04-25T02:18:38;5.25;;;2.50;;
72586;SDS011;60621;49.576;11.024;2023-04-25T02:19:40;7.13;;;2.65;;
72586;SDS011;60621;49.576;11.024;2023-04-25T02:20:42;5.75;;;2.88;;
72586;SDS011;60621;49.576;11.024;2023-04-25T02:21:44;4.93;;;2.53;;
72586;SDS011;60621;49.576;11.024;2023-04-25T02:22:45;6.13;;;2.90;;
72586;SDS011;60621;49.576;11.024;2023-04-25T02:23:47;5.30;;;2.78;;
72586;SDS011;60621;49.576;11.024;2023-04-25T02:24:50;5.57;;;2.58;;
72586;SDS011;60621;49.576;11.024;2023-04-25T02:25:52;6.03;;;2.88;;
72586;SDS011;60621;49.576;11.024;2023-04-25T02:26:54;6.15;;;2.72;;
72586;SDS011;60621;49.576;11.024;2023-04-25T02:31:01;5.57;;;2.55;;
72586;SDS011;60621;49.576;11.024;2023-04-25T02:32:02;5.00;;;2.53;;
72586;SDS011;60621;49.576;11.024;2023-04-25T02:33:04;5.90;;;2.78;;
72586;SDS011;60621;49.576;11.024;2023-04-25T02:34:06;6.00;;;2.88;;
72586;SDS011;60621;49.576;11.024;2023-04-25T02:35:07;5.03;;;2.58;;
72586;SDS011;60621;49.576;11.024;2023-04-25T02:36:09;6.68;;;2.92;;
72586;SDS011;60621;49.576;11.024;2023-04-25T02:37:11;6.28;;;2.85;;
72586;SDS011;60621;49.576;11.024;2023-04-25T02:38:13;6.57;;;2.70;;
72586;SDS011;60621;49.576;11.024;2023-04-25T02:39:14;6.00;;;3.22;;
72586;SDS011;60621;49.576;11.024;2023-04-25T02:40:16;6.00;;;2.88;;
72586;SDS011;60621;49.576;11.024;2023-04-25T02:41:17;6.13;;;2.90;;
72586;SDS011;60621;49.576;11.024;2023-04-25T02:42:19;6.93;;;3.17;;
72586;SDS011;60621;49.576;11.024;2023-04-25T02:43:20;6.90;;;3.22;;
72586;SDS011;60621;49.576;11.024;2023-04-25T02:44:23;7.20;;;3.00;;
72586;SDS011;60621;49.576;11.024;2023-04-25T02:45:24;7.22;;;3.17;;
72586;SDS011;60621;49.576;11.024;2023-04-25T02:46:26;5.40;;;2.83;;
72586;SDS011;60621;49.576;11.024;2023-04-25T02:47:39;6.03;;;2.92;;
72586;SDS011;60621;49.576;11.024;2023-04-25T02:48:41;5.57;;;2.90;;
72586;SDS011;60621;49.576;11.024;2023-04-25T02:49:42;5.97;;;2.72;;
72586;SDS011;60621;49.576;11.024;2023-04-25T02:50:44;6.35;;;3.30;;
72586;SDS011;60621;49.576;11.024;2023-04-25T02:51:46;6.82;;;2.92;;
72586;SDS011;60621;49.576;11.024;2023-04-25T02:52:47;6.65;;;3.20;;
72586;SDS011;60621;49.576;11.024;2023-04-25T02:53:49;5.72;;;3.00;;
72586;SDS011;60621;49.576;11.024;2023-04-25T02:54:51;6.47;;;3.10;;
72586;SDS011;60621;49.576;11.024;2023-04-25T02:55:53;6.60;;;2.95;;
72586;SDS011;60621;49.576;11.024;2023-04-25T02:56:55;5.80;;;3.13;;
72586;SDS011;60621;49.576;11.024;2023-04-25T02:57:56;5.53;;;3.03;;
72586;SDS011;60621;49.576;11.024;2023-04-25T02:58:58;5.45;;;2.70;;
72586;SDS011;60621;49.576;11.024;2023-04-25T02:59:59;6.90;;;3.20;;
72586;SDS011;60621;49.576;11.024;2023-04-25T03:01:01;6.20;;;3.10;;
72586;SDS011;60621;49.576;11.024;2023-04-25T03:02:03;5.90;;;3.08;;
72586;SDS011;60621;49.576;11.024;2023-04-25T03:03:04;6.72;;;3.17;;
72586;SDS011;60621;49.576;11.024;2023-04-25T03:04:06;7.18;;;3.28;;
72586;SDS011;60621;49.576;11.024;2023-04-25T03:05:08;6.85;;;2.97;;
72586;SDS011;60621;49.576;11.024;2023-04-25T03:06:10;5.90;;;3.17;;
72586;SDS011;60621;49.576;11.024;2023-04-25T03:07:12;5.88;;;3.05;;
72586;SDS011;60621;49.576;11.024;2023-04-25T03:08:13;7.20;;;3.45;;
72586;SDS011;60621;49.576;11.024;2023-04-25T03:09:15;6.88;;;3.10;;
72586;SDS011;60621;49.576;11.024;2023-04-25T03:10:16;6.68;;;3.22;;
72586;SDS011;60621;49.576;11.024;2023-04-25T03:11:18;6.30;;;3.20;;
72586;SDS011;60621;49.576;11.024;2023-04-25T03:12:21;5.78;;;3.10;;
72586;SDS011;60621;49.576;11.024;2023-04-25T03:13:22;6.43;;;3.05;;
72586;SDS011;60621;49.576;11.024;2023-04-25T03:14:24;6.53;;;3.13;;
72586;SDS011;60621;49.576;11.024;2023-04-25T03:15:26;5.32;;;2.90;;
72586;SDS011;60621;49.576;11.024;2023-04-25T03:16:28;5.50;;;2.90;;
72586;SDS011;60621;49.576;11.024;2023-04-25T03:17:29;6.78;;;2.97;;
72586;SDS011;60621;49.576;11.024;2023-04-25T03:18:31;5.80;;;2.83;;
72586;SDS011;60621;49.576;11.024;2023-04-25T03:19:32;5.78;;;3.00;;
72586;SDS011;60621;49.576;11.024;2023-04-25T03:20:34;5.20;;;2.85;;
72586;SDS011;60621;49.576;11.024;2023-04-25T03:21:36;6.07;;;3.15;;
72586;SDS011;60621;49.576;11.024;2023-04-25T03:22:37;6.20;;;3.22;;
72586;SDS011;60621;49.576;11.024;2023-04-25T03:23:39;8.25;;;3.17;;
72586;SDS011;60621;49.576;11.024;2023-04-25T03:24:40;7.13;;;3.40;;
72586;SDS011;60621;49.576;11.024;2023-04-25T03:25:42;6.80;;;3.00;;
72586;SDS011;60621;49.576;11.024;2023-04-25T03:26:43;6.07;;;3.00;;
72586;SDS011;60621;49.576;11.024;2023-04-25T03:27:45;6.32;;;3.25;;
72586;SDS011;60621;49.576;11.024;2023-04-25T03:28:46;5.55;;;2.78;;
72586;SDS011;60621;49.576;11.024;2023-04-25T03:29:48;5.97;;;3.22;;
72586;SDS011;60621;49.576;11.024;2023-04-25T03:30:49;7.85;;;3.10;;
72586;SDS011;60621;49.576;11.024;2023-04-25T03:31:51;6.95;;;3.38;;
72586;SDS011;60621;49.576;11.024;2023-04-25T03:32:53;5.95;;;2.92;;
72586;SDS011;60621;49.576;11.024;2023-04-25T03:33:54;7.20;;;3.60;;
72586;SDS011;60621;49.576;11.024;2023-04-25T03:34:56;6.85;;;3.22;;
72586;SDS011;60621;49.576;11.024;2023-04-25T03:35:57;6.05;;;3.25;;
72586;SDS011;60621;49.576;11.024;2023-04-25T03:36:59;6.47;;;3.30;;
72586;SDS011;60621;49.576;11.024;2023-04-25T03:38:01;6.07;;;3.15;;
72586;SDS011;60621;49.576;11.024;2023-04-25T03:39:02;5.47;;;3.15;;
72586;SDS011;60621;49.576;11.024;2023-04-25T03:40:04;6.22;;;3.20;;
72586;SDS011;60621;49.576;11.024;2023-04-25T03:41:06;7.28;;;3.25;;
72586;SDS011;60621;49.576;11.024;2023-04-25T03:42:08;6.53;;;2.95;;
72586;SDS011;60621;49.576;11.024;2023-04-25T03:43:09;6.95;;;3.42;;
72586;SDS011;60621;49.576;11.024;2023-04-25T03:44:11;8.63;;;3.40;;
72586;SDS011;60621;49.576;11.024;2023-04-25T03:45:12;6.75;;;3.38;;
72586;SDS011;60621;49.576;11.024;2023-04-25T03:46:14;6.00;;;3.28;;
72586;SDS011;60621;49.576;11.024;2023-04-25T03:47:16;6.18;;;3.22;;
72586;SDS011;60621;49.576;11.024;2023-04-25T03:48:17;6.80;;;3.42;;
72586;SDS011;60621;49.576;11.024;2023-04-25T03:49:21;7.28;;;3.40;;
72586;SDS011;60621;49.576;11.024;2023-04-25T03:50:22;6.78;;;3.40;;
72586;SDS011;60621;49.576;11.024;2023-04-25T03:51:24;6.22;;;3.35;;
72586;SDS011;60621;49.576;11.024;2023-04-25T03:52:26;7.03;;;3.28;;
72586;SDS011;60621;49.576;11.024;2023-04-25T03:53:28;6.57;;;3.53;;
72586;SDS011;60621;49.576;11.024;2023-04-25T03:54:30;6.00;;;3.50;;
72586;SDS011;60621;49.576;11.024;2023-04-25T03:55:31;6.22;;;3.30;;
72586;SDS011;60621;49.576;11.024;2023-04-25T03:56:33;7.30;;;3.92;;
72586;SDS011;60621;49.576;11.024;2023-04-25T03:57:34;7.43;;;3.53;;
72586;SDS011;60621;49.576;11.024;2023-04-25T03:58:36;7.22;;;4.00;;
72586;SDS011;60621;49.576;11.024;2023-04-25T03:59:37;8.02;;;3.85;;
72586;SDS011;60621;49.576;11.024;2023-04-25T04:00:39;7.07;;;3.70;;
72586;SDS011;60621;49.576;11.024;2023-04-25T04:01:41;6.90;;;3.67;;
72586;SDS011;60621;49.576;11.024;2023-04-25T04:02:42;7.53;;;3.80;;
72586;SDS011;60621;49.576;11.024;2023-04-25T04:03:45;6.75;;;3.78;;
72586;SDS011;60621;49.576;11.024;2023-04-25T04:04:47;6.80;;;3.63;;
72586;SDS011;60621;49.576;11.024;2023-04-25T04:05:49;7.72;;;4.05;;
72586;SDS011;60621;49.576;11.024;2023-04-25T04:06:51;7.32;;;3.85;;
72586;SDS011;60621;49.576;11.024;2023-04-25T04:07:54;7.43;;;3.95;;
72586;SDS011;60621;49.576;11.024;2023-04-25T04:08:56;7.32;;;3.83;;
72586;SDS011;60621;49.576;11.024;2023-04-25T04:09:57;7.20;;;3.65;;
72586;SDS011;60621;49.576;11.024;2023-04-25T04:10:59;8.40;;;4.10;;
72586;SDS011;60621;49.576;11.024;2023-04-25T04:12:01;8.63;;;4.70;;
72586;SDS011;60621;49.576;11.024;2023-04-25T04:13:03;7.82;;;4.10;;
72586;SDS011;60621;49.576;11.024;2023-04-25T04:14:06;7.03;;;3.85;;
72586;SDS011;60621;49.576;11.024;2023-04-25T04:15:10;7.63;;;3.90;;
72586;SDS011;60621;49.576;11.024;2023-04-25T04:16:13;8.07;;;3.90;;
72586;SDS011;60621;49.576;11.024;2023-04-25T04:17:14;8.15;;;4.22;;
72586;SDS011;60621;49.576;11.024;2023-04-25T04:18:16;7.80;;;4.30;;
72586;SDS011;60621;49.576;11.024;2023-04-25T04:19:17;7.63;;;4.00;;
72586;SDS011;60621;49.576;11.024;2023-04-25T04:20:19;8.20;;;4.90;;
72586;SDS011;60621;49.576;11.024;2023-04-25T04:21:21;7.53;;;4.20;;
72586;SDS011;60621;49.576;11.024;2023-04-25T04:22:22;7.75;;;3.72;;
72586;SDS011;60621;49.576;11.024;2023-04-25T04:23:24;8.32;;;4.30;;
72586;SDS011;60621;49.576;11.024;2023-04-25T04:24:28;9.27;;;4.20;;
72586;SDS011;60621;49.576;11.024;2023-04-25T04:25:29;8.32;;;4.68;;
72586;SDS011;60621;49.576;11.024;2023-04-25T04:26:31;8.23;;;4.30;;
72586;SDS011;60621;49.576;11.024;2023-04-25T04:27:33;8.07;;;4.22;;
72586;SDS011;60621;49.576;11.024;2023-04-25T04:28:35;7.40;;;3.78;;
72586;SDS011;60621;49.576;11.024;2023-04-25T04:29:37;7.93;;;4.10;;
72586;SDS011;60621;49.576;11.024;2023-04-25T04:30:39;7.78;;;4.22;;
72586;SDS011;60621;49.576;11.024;2023-04-25T04:31:42;8.00;;;4.00;;
72586;SDS011;60621;49.576;11.024;2023-04-25T04:32:44;7.43;;;4.22;;
72586;SDS011;60621;49.576;11.024;2023-04-25T04:33:46;7.07;;;3.80;;
72586;SDS011;60621;49.576;11.024;2023-04-25T04:34:47;8.32;;;4.18;;
72586;SDS011;60621;49.576;11.024;2023-04-25T04:35:50;8.13;;;4.35;;
72586;SDS011;60621;49.576;11.024;2023-04-25T04:36:54;7.70;;;3.85;;
72586;SDS011;60621;49.576;11.024;2023-04-25T04:37:56;8.32;;;3.67;;
72586;SDS011;60621;49.576;11.024;2023-04-25T04:38:57;9.68;;;4.05;;
72586;SDS011;60621;49.576;11.024;2023-04-25T04:39:59;8.35;;;4.15;;
72586;SDS011;60621;49.576;11.024;2023-04-25T04:41:00;7.10;;;3.83;;
72586;SDS011;60621;49.576;11.024;2023-04-25T04:42:02;7.57;;;4.22;;
72586;SDS011;60621;49.576;11.024;2023-04-25T04:43:04;8.05;;;4.35;;
72586;SDS011;60621;49.576;11.024;2023-04-25T04:44:05;7.45;;;4.05;;
72586;SDS011;60621;49.576;11.024;2023-04-25T04:45:11;8.00;;;4.10;;
72586;SDS011;60621;49.576;11.024;2023-04-25T04:46:14;7.78;;;4.00;;
72586;SDS011;60621;49.576;11.024;2023-04-25T04:47:15;7.72;;;3.95;;
72586;SDS011;60621;49.576;11.024;2023-04-25T04:48:17;9.35;;;4.03;;
72586;SDS011;60621;49.576;11.024;2023-04-25T04:49:18;7.45;;;3.90;;
72586;SDS011;60621;49.576;11.024;2023-04-25T04:50:20;7.55;;;4.03;;
72586;SDS011;60621;49.576;11.024;2023-04-25T04:51:21;7.25;;;3.60;;
72586;SDS011;60621;49.576;11.024;2023-04-25T04:52:23;7.55;;;3.90;;
72586;SDS011;60621;49.576;11.024;2023-04-25T04:53:24;9.10;;;3.80;;
72586;SDS011;60621;49.576;11.024;2023-04-25T04:54:26;6.75;;;3.38;;
72586;SDS011;60621;49.576;11.024;2023-04-25T04:55:28;7.63;;;3.63;;
72586;SDS011;60621;49.576;11.024;2023-04-25T04:56:30;6.88;;;3.70;;
72586;SDS011;60621;49.576;11.024;2023-04-25T04:57:34;7.03;;;3.80;;
72586;SDS011;60621;49.576;11.024;2023-04-25T04:58:36;7.82;;;3.70;;
72586;SDS011;60621;49.576;11.024;2023-04-25T04:59:38;6.38;;;3.22;;
72586;SDS011;60621;49.576;11.024;2023-04-25T05:00:40;6.50;;;3.50;;
72586;SDS011;60621;49.576;11.024;2023-04-25T05:01:41;6.85;;;3.33;;
72586;SDS011;60621;49.576;11.024;2023-04-25T05:02:43;7.03;;;3.67;;
72586;SDS011;60621;49.576;11.024;2023-04-25T05:03:45;6.97;;;3.53;;
72586;SDS011;60621;49.576;11.024;2023-04-25T05:04:47;6.53;;;3.17;;
72586;SDS011;60621;49.576;11.024;2023-04-25T05:05:48;7.15;;;3.60;;
72586;SDS011;60621;49.576;11.024;2023-04-25T05:06:50;6.85;;;3.75;;
72586;SDS011;60621;49.576;11.024;2023-04-25T05:07:52;7.80;;;3.83;;
72586;SDS011;60621;49.576;11.024;2023-04-25T05:08:53;7.97;;;3.42;;
72586;SDS011;60621;49.576;11.024;2023-04-25T05:09:55;8.25;;;3.50;;
72586;SDS011;60621;49.576;11.024;2023-04-25T05:10:57;6.65;;;3.55;;
72586;SDS011;60621;49.576;11.024;2023-04-25T05:11:58;7.00;;;3.30;;
72586;SDS011;60621;49.576;11.024;2023-04-25T05:13:00;8.02;;;3.65;;
72586;SDS011;60621;49.576;11.024;2023-04-25T05:14:01;7.07;;;3.53;;
72586;SDS011;60621;49.576;11.024;2023-04-25T05:15:03;7.05;;;3.30;;
72586;SDS011;60621;49.576;11.024;2023-04-25T05:16:05;6.45;;;3.55;;
72586;SDS011;60621;49.576;11.024;2023-04-25T05:17:07;7.60;;;3.53;;
72586;SDS011;60621;49.576;11.024;2023-04-25T05:18:09;7.10;;;3.00;;
72586;SDS011;60621;49.576;11.024;2023-04-25T05:19:12;7.90;;;3.20;;
72586;SDS011;60621;49.576;11.024;2023-04-25T05:20:14;6.10;;;3.30;;
72586;SDS011;60621;49.576;11.024;2023-04-25T05:21:16;7.65;;;3.60;;
72586;SDS011;60621;49.576;11.024;2023-04-25T05:22:18;6.78;;;3.05;;
72586;SDS011;60621;49.576;11.024;2023-04-25T05:23:19;6.65;;;3.42;;
72586;SDS011;60621;49.576;11.024;2023-04-25T05:24:21;6.03;;;3.33;;
72586;SDS011;60621;49.576;11.024;2023-04-25T05:25:22;6.13;;;3.38;;
72586;SDS011;60621;49.576;11.024;2023-04-25T05:26:24;6.50;;;3.60;;
72586;SDS011;60621;49.576;11.024;2023-04-25T05:27:25;6.57;;;3.10;;
72586;SDS011;60621;49.576;11.024;2023-04-25T05:28:27;5.93;;;3.00;;
72586;SDS011;60621;49.576;11.024;2023-04-25T05:29:28;6.22;;;3.33;;
72586;SDS011;60621;49.576;11.024;2023-04-25T05:30:30;5.88;;;2.90;;
72586;SDS011;60621;49.576;11.024;2023-04-25T05:31:31;6.82;;;3.30;;
72586;SDS011;60621;49.576;11.024;2023-04-25T05:32:35;7.00;;;2.90;;
72586;SDS011;60621;49.576;11.024;2023-04-25T05:33:38;6.18;;;2.97;;
72586;SDS011;60621;49.576;11.024;2023-04-25T05:34:40;6.97;;;2.75;;
72586;SDS011;60621;49.576;11.024;2023-04-25T05:35:43;5.35;;;2.80;;
72586;SDS011;60621;49.576;11.024;2023-04-25T05:36:44;5.80;;;2.45;;
72586;SDS011;60621;49.576;11.024;2023-04-25T05:37:49;5.30;;;2.65;;
72586;SDS011;60621;49.576;11.024;2023-04-25T05:38:51;6.05;;;2.85;;
72586;SDS011;60621;49.576;11.024;2023-04-25T05:39:52;5.18;;;2.60;;
72586;SDS011;60621;49.576;11.024;2023-04-25T05:40:54;5.45;;;2.53;;
72586;SDS011;60621;49.576;11.024;2023-04-25T05:41:56;5.72;;;2.90;;
72586;SDS011;60621;49.576;11.024;2023-04-25T05:42:57;6.95;;;2.90;;
72586;SDS011;60621;49.576;11.024;2023-04-25T05:43:59;6.50;;;2.65;;
72586;SDS011;60621;49.576;11.024;2023-04-25T05:45:01;5.95;;;2.97;;
72586;SDS011;60621;49.576;11.024;2023-04-25T05:46:02;5.35;;;2.78;;
72586;SDS011;60621;49.576;11.024;2023-04-25T05:47:04;5.65;;;2.60;;
72586;SDS011;60621;49.576;11.024;2023-04-25T05:48:06;5.80;;;2.50;;
72586;SDS011;60621;49.576;11.024;2023-04-25T05:49:07;6.60;;;3.00;;
72586;SDS011;60621;49.576;11.024;2023-04-25T05:50:22;6.57;;;2.85;;
72586;SDS011;60621;49.576;11.024;2023-04-25T05:51:24;4.93;;;2.50;;
72586;SDS011;60621;49.576;11.024;2023-04-25T05:52:26;6.38;;;3.10;;
72586;SDS011;60621;49.576;11.024;2023-04-25T05:53:27;5.45;;;2.80;;
72586;SDS011;60621;49.576;11.024;2023-04-25T05:54:29;6.10;;;2.97;;
72586;SDS011;60621;49.576;11.024;2023-04-25T05:55:30;6.38;;;3.13;;
72586;SDS011;60621;49.576;11.024;2023-04-25T05:56:32;7.75;;;3.10;;
72586;SDS011;60621;49.576;11.024;2023-04-25T05:57:33;8.52;;;3.15;;
72586;SDS011;60621;49.576;11.024;2023-04-25T05:58:35;5.78;;;2.97;;
72586;SDS011;60621;49.576;11.024;2023-04-25T05:59:36;7.60;;;3.33;;
72586;SDS011;60621;49.576;11.024;2023-04-25T06:00:38;5.82;;;2.92;;
72586;SDS011;60621;49.576;11.024;2023-04-25T06:01:42;7.28;;;3.45;;
72586;SDS011;60621;49.576;11.024;2023-04-25T06:02:44;7.57;;;3.00;;
72586;SDS011;60621;49.576;11.024;2023-04-25T06:03:46;5.85;;;3.08;;
72586;SDS011;60621;49.576;11.024;2023-04-25T06:04:50;6.63;;;3.42;;
72586;SDS011;60621;49.576;11.024;2023-04-25T06:05:53;8.50;;;3.35;;
72586;SDS011;60621;49.576;11.024;2023-04-25T06:06:54;6.00;;;3.10;;
72586;SDS011;60621;49.576;11.024;2023-04-25T06:07:56;6.13;;;3.13;;
72586;SDS011;60621;49.576;11.024;2023-04-25T06:08:57;8.38;;;3.45;;
72586;SDS011;60621;49.576;11.024;2023-04-25T06:09:59;6.57;;;3.50;;
72586;SDS011;60621;49.576;11.024;2023-04-25T06:11:01;7.25;;;3.30;;
72586;SDS011;60621;49.576;11.024;2023-04-25T06:12:03;6.35;;;3.42;;
72586;SDS011;60621;49.576;11.024;2023-04-25T06:13:05;9.02;;;3.63;;
72586;SDS011;60621;49.576;11.024;2023-04-25T06:14:07;6.53;;;3.60;;
72586;SDS011;60621;49.576;11.024;2023-04-25T06:15:08;8.20;;;3.90;;
72586;SDS011;60621;49.576;11.024;2023-04-25T06:16:27;7.85;;;3.53;;
72586;SDS011;60621;49.576;11.024;2023-04-25T06:17:29;7.18;;;3.60;;
72586;SDS011;60621;49.576;11.024;2023-04-25T06:18:32;8.95;;;3.83;;
72586;SDS011;60621;49.576;11.024;2023-04-25T06:19:34;8.48;;;3.83;;